Time;durP1;ratioP1;P1;durP2;ratioP2;P2;SDS_P1;SDS_P2;PMS_P1;PMS_P2;Temp;Humidity;BMP_temperature;BMP_pressure;BME280_temperature;BME280_humidity;BME280_pressure;Samples;Min_cycle;Max_cycle;Signal;HPM_P1;HPM_P2
2022/11/13 00:00:00;;;;;;;322.35;126.43;;;;;;;10.07;100.00;101233.91;273759;35;6791;-74
2022/11/13 00:00:11;;;;;;;325.63;126.93;;;;;;;10.07;100.00;101231.28;272521;36;3532;-75
2022/11/13 00:00:22;;;;;;;326.60;127.30;;;;;;;10.08;100.00;101232.16;270471;35;8767;-75
2022/11/13 00:00:32;;;;;;;326.65;128.57;;;;;;;10.08;100.00;101226.91;269473;36;9249;-75
2022/11/13 00:03:04;;;;;;;310.63;115.52;;;;;;;10.10;100.00;101236.47;2502873;27;20266;-76
2022/11/13 00:03:15;;;;;;;319.17;119.07;;;;;;;10.10;100.00;101228.63;353208;28;979;-74
2022/11/13 00:03:28;;;;;;;320.13;122.28;;;;;;;10.10;100.00;101227.75;351875;28;939;-74
2022/11/13 00:03:38;;;;;;;319.38;122.45;;;;;;;10.09;100.00;101224.28;348977;28;914;-75
2022/11/13 00:03:48;;;;;;;317.87;119.03;;;;;;;10.09;100.00;101219.03;347296;28;1959;-74
2022/11/13 00:03:59;;;;;;;319.67;120.05;;;;;;;10.11;100.00;101229.50;347325;28;1428;-78
2022/11/13 00:04:09;;;;;;;319.20;121.37;;;;;;;10.10;100.00;101231.25;347732;28;906;-74
2022/11/13 00:04:20;;;;;;;320.38;124.10;;;;;;;10.13;100.00;101230.34;346761;28;1222;-74
2022/11/13 00:04:30;;;;;;;320.17;121.57;;;;;;;10.12;100.00;101234.69;347572;28;1356;-76
2022/11/13 00:04:40;;;;;;;320.38;119.72;;;;;;;10.13;100.00;101231.22;348082;28;1988;-74
2022/11/13 00:04:51;;;;;;;320.07;119.17;;;;;;;10.13;100.00;101230.34;347592;28;1113;-76
2022/11/13 00:05:01;;;;;;;320.00;121.63;;;;;;;10.13;100.00;101231.22;348792;28;1255;-74
2022/11/13 00:05:12;;;;;;;319.27;121.95;;;;;;;10.13;100.00;101235.56;349697;28;884;-74
2022/11/13 00:05:22;;;;;;;321.60;121.50;;;;;;;10.13;100.00;101231.22;347652;28;1285;-74
2022/11/13 00:05:33;;;;;;;319.02;117.35;;;;;;;10.13;100.00;101231.22;347695;28;1407;-76
2022/11/13 00:05:43;;;;;;;318.93;117.50;;;;;;;10.13;100.00;101227.72;349580;28;1184;-75
2022/11/13 00:06:00;;;;;;;317.42;117.85;;;;;;;10.13;100.00;101236.44;348620;28;1354;-75
2022/11/13 00:06:11;;;;;;;318.30;118.53;;;;;;;10.13;100.00;101230.34;349004;28;859;-74
2022/11/13 00:06:21;;;;;;;317.98;119.57;;;;;;;10.13;100.00;101225.97;349004;28;1669;-74
2022/11/13 00:06:32;;;;;;;318.10;120.33;;;;;;;10.14;100.00;101230.31;348960;28;1259;-74
2022/11/13 00:06:42;;;;;;;317.65;119.68;;;;;;;10.13;100.00;101233.81;348817;28;1479;-74
2022/11/13 00:06:52;;;;;;;319.27;121.60;;;;;;;10.13;100.00;101227.72;347809;28;1328;-74
2022/11/13 00:07:03;;;;;;;320.30;122.70;;;;;;;10.13;100.00;101225.09;348900;28;921;-74
2022/11/13 00:07:13;;;;;;;322.17;124.70;;;;;;;10.13;100.00;101231.22;348833;28;879;-74
2022/11/13 00:07:24;;;;;;;320.67;122.00;;;;;;;10.14;100.00;101235.56;348840;28;1227;-74
2022/11/13 00:07:34;;;;;;;322.30;123.97;;;;;;;10.13;100.00;101231.22;347613;28;1215;-74
2022/11/13 00:07:44;;;;;;;322.23;123.70;;;;;;;10.14;100.00;101226.84;343623;28;1337;-74
2022/11/13 00:07:55;;;;;;;323.08;125.13;;;;;;;10.14;100.00;101226.84;345165;28;1318;-76
2022/11/13 00:08:05;;;;;;;321.73;124.33;;;;;;;10.13;100.00;101225.97;344607;28;1427;-75
2022/11/13 00:08:16;;;;;;;320.02;122.32;;;;;;;10.13;100.00;101231.22;343357;28;1307;-75
2022/11/13 00:08:26;;;;;;;321.00;122.60;;;;;;;10.13;100.00;101231.22;342593;28;1004;-74
2022/11/13 00:08:36;;;;;;;321.25;123.10;;;;;;;10.13;100.00;101236.44;346289;28;892;-75
2022/11/13 00:08:47;;;;;;;321.97;124.83;;;;;;;10.11;100.00;101227.75;345771;28;3676;-75
2022/11/13 00:08:58;;;;;;;321.02;123.70;;;;;;;10.13;100.00;101225.97;344519;28;5085;-75
2022/11/13 00:09:11;;;;;;;321.83;123.00;;;;;;;10.12;100.00;101229.47;344676;28;6420;-75
2022/11/13 00:09:21;;;;;;;323.92;122.35;;;;;;;10.13;100.00;101233.81;342703;28;1690;-75
2022/11/13 00:09:32;;;;;;;322.63;122.20;;;;;;;10.13;100.00;101230.34;344432;28;6131;-75
2022/11/13 00:09:42;;;;;;;320.42;122.35;;;;;;;10.14;100.00;101232.94;341681;28;1777;-75
2022/11/13 00:09:53;;;;;;;318.60;122.40;;;;;;;10.14;100.00;101226.84;342120;28;1201;-75
2022/11/13 00:10:04;;;;;;;319.58;122.97;;;;;;;10.15;100.00;101229.44;343616;28;969;-74
2022/11/13 00:10:15;;;;;;;321.27;124.55;;;;;;;10.14;100.00;101227.69;343499;28;1055;-74
2022/11/13 00:10:25;;;;;;;322.05;126.22;;;;;;;10.14;100.00;101232.94;342155;28;1414;-75
2022/11/13 00:10:36;;;;;;;321.17;126.07;;;;;;;10.14;100.00;101232.94;338173;29;1660;-76
2022/11/13 00:10:46;;;;;;;321.15;124.22;;;;;;;10.15;100.00;101229.44;338044;29;1411;-75
2022/11/13 00:11:08;;;;;;;320.43;122.97;;;;;;;10.15;100.00;101226.81;339315;29;1446;-76
2022/11/13 00:11:18;;;;;;;317.13;119.13;;;;;;;10.15;100.00;101232.06;336919;29;917;-75
2022/11/13 00:11:29;;;;;;;317.00;118.72;;;;;;;10.15;100.00;101224.19;335421;29;1452;-75
2022/11/13 00:11:39;;;;;;;319.43;120.63;;;;;;;10.13;100.00;101228.59;333299;29;1632;-74
2022/11/13 00:11:50;;;;;;;322.42;126.15;;;;;;;10.14;100.00;101229.47;333035;29;1646;-75
2022/11/13 00:12:00;;;;;;;323.30;127.80;;;;;;;10.14;100.00;101232.06;334148;29;1907;-75
2022/11/13 00:12:10;;;;;;;321.23;126.50;;;;;;;10.15;100.00;101228.56;336213;29;1269;-75
2022/11/13 00:12:21;;;;;;;319.20;123.10;;;;;;;10.15;100.00;101229.44;335952;29;1515;-76
2022/11/13 00:12:31;;;;;;;319.60;122.20;;;;;;;10.14;100.00;101232.94;335286;29;982;-75
2022/11/13 00:12:42;;;;;;;321.27;123.27;;;;;;;10.14;100.00;101230.31;338209;29;946;-74
2022/11/13 00:12:53;;;;;;;320.57;122.50;;;;;;;10.15;100.00;101237.28;334400;29;1180;-76
2022/11/13 00:13:03;;;;;;;321.27;124.75;;;;;;;10.13;100.00;101228.59;331872;29;1838;-75
2022/11/13 00:13:13;;;;;;;319.15;123.25;;;;;;;10.14;100.00;101226.84;332745;29;1922;-74
2022/11/13 00:13:24;;;;;;;321.03;124.53;;;;;;;10.12;100.00;101229.47;331255;29;1837;-75
2022/11/13 00:13:34;;;;;;;319.23;122.38;;;;;;;10.13;100.00;101236.44;332967;29;1224;-75
2022/11/13 00:13:45;;;;;;;322.43;124.53;;;;;;;10.12;100.00;101224.25;331728;29;1935;-74
2022/11/13 00:13:55;;;;;;;323.15;123.63;;;;;;;10.13;100.00;101225.97;333310;29;2043;-74
2022/11/13 00:14:06;;;;;;;324.70;125.23;;;;;;;10.12;100.00;101226.84;336899;29;1207;-75
2022/11/13 00:14:16;;;;;;;322.60;124.50;;;;;;;10.13;100.00;101231.22;329195;29;1552;-74
2022/11/13 00:14:26;;;;;;;321.93;126.90;;;;;;;10.13;100.00;101232.97;329815;29;1260;-74
2022/11/13 00:14:37;;;;;;;321.42;124.25;;;;;;;10.12;100.00;101234.69;334426;29;957;-75
2022/11/13 00:14:47;;;;;;;320.23;123.97;;;;;;;10.12;100.00;101229.47;332971;29;1333;-75
2022/11/13 00:14:58;;;;;;;320.77;123.60;;;;;;;10.13;100.00;101228.59;330123;29;1792;-75
2022/11/13 00:15:09;;;;;;;321.70;126.37;;;;;;;10.14;100.00;101232.94;330117;29;2123;-75
2022/11/13 00:15:19;;;;;;;322.90;126.53;;;;;;;10.13;100.00;101231.22;328114;30;1328;-75
2022/11/13 00:15:29;;;;;;;319.93;122.23;;;;;;;10.14;100.00;101234.69;329446;29;2346;-74
2022/11/13 00:15:40;;;;;;;320.30;123.13;;;;;;;10.15;100.00;101229.44;328208;29;2481;-74
2022/11/13 00:16:04;;;;;;;319.27;123.47;;;;;;;10.15;100.00;101233.81;325511;30;960;-74
2022/11/13 00:16:16;;;;;;;318.63;122.97;;;;;;;10.15;100.00;101229.44;328587;29;2271;-74
2022/11/13 00:16:26;;;;;;;319.42;121.45;;;;;;;10.15;100.00;101233.81;327604;30;1552;-74
2022/11/13 00:16:37;;;;;;;319.37;120.50;;;;;;;10.15;100.00;101228.56;328469;30;1865;-75
2022/11/13 00:16:47;;;;;;;319.90;121.03;;;;;;;10.14;100.00;101227.69;325598;30;947;-74
2022/11/13 00:16:58;;;;;;;319.30;121.60;;;;;;;10.12;100.00;101228.59;325028;30;1927;-75
2022/11/13 00:17:08;;;;;;;319.35;119.30;;;;;;;10.13;100.00;101227.72;327283;30;1149;-73
2022/11/13 00:17:18;;;;;;;320.47;118.60;;;;;;;10.13;100.00;101228.59;322154;30;1500;-75
2022/11/13 00:17:29;;;;;;;322.47;122.53;;;;;;;10.14;100.00;101227.69;320180;30;2922;-74
2022/11/13 00:17:39;;;;;;;322.05;122.82;;;;;;;10.14;100.00;101230.31;317836;30;3137;-73
2022/11/13 00:17:49;;;;;;;323.13;126.03;;;;;;;10.14;100.00;101227.69;316333;31;1195;-73
2022/11/13 00:18:01;;;;;;;323.45;125.78;;;;;;;10.15;100.00;101228.56;314754;31;4310;-73
2022/11/13 00:18:11;;;;;;;324.05;128.95;;;;;;;10.15;100.00;101226.81;316029;30;6074;-74
2022/11/13 00:18:22;;;;;;;325.05;129.13;;;;;;;10.15;100.00;101229.44;318859;31;2050;-75
2022/11/13 00:18:33;;;;;;;327.98;127.95;;;;;;;10.14;100.00;101225.09;316809;31;2897;-75
2022/11/13 00:18:44;;;;;;;324.60;123.80;;;;;;;10.15;100.00;101218.09;315043;31;6230;-75
2022/11/13 00:18:54;;;;;;;321.33;122.40;;;;;;;10.16;100.00;101225.06;312898;31;2135;-74
2022/11/13 00:19:05;;;;;;;321.63;123.55;;;;;;;10.14;100.00;101227.69;312332;31;1341;-74
2022/11/13 00:19:15;;;;;;;322.30;124.80;;;;;;;10.16;100.00;101231.16;312181;31;2567;-74
2022/11/13 00:19:25;;;;;;;322.13;123.70;;;;;;;10.16;100.00;101225.06;310575;31;3206;-73
2022/11/13 00:19:36;;;;;;;322.07;123.47;;;;;;;10.15;100.00;101226.81;306358;32;1295;-74
2022/11/13 00:19:46;;;;;;;322.25;124.10;;;;;;;10.17;100.00;101232.03;303593;32;4280;-74
2022/11/13 00:19:57;;;;;;;321.53;123.90;;;;;;;10.17;100.00;101221.56;303147;32;4687;-74
2022/11/13 00:20:08;;;;;;;320.23;122.55;;;;;;;10.18;100.00;101233.75;302231;32;1219;-74
2022/11/13 00:20:18;;;;;;;319.60;121.87;;;;;;;10.16;100.00;101223.31;300173;32;5191;-74
2022/11/13 00:20:28;;;;;;;320.42;122.72;;;;;;;10.17;100.00;101227.66;294764;33;4168;-73
2022/11/13 00:20:39;;;;;;;321.27;123.77;;;;;;;10.17;100.00;101230.28;292853;33;4556;-73
2022/11/13 00:20:49;;;;;;;322.38;126.28;;;;;;;10.18;100.00;101229.41;297188;33;869;-73
2022/11/13 00:21:13;;;;;;;322.87;127.53;;;;;;;10.17;100.00;101226.81;291743;33;3244;-73
2022/11/13 00:21:24;;;;;;;320.17;121.63;;;;;;;10.18;100.00;101232.00;284416;34;4049;-73
2022/11/13 00:21:34;;;;;;;320.25;120.63;;;;;;;10.18;100.00;101225.91;283728;34;1412;-73
2022/11/13 00:21:44;;;;;;;323.30;124.40;;;;;;;10.18;100.00;101234.63;283461;34;5325;-73
2022/11/13 00:21:58;;;;;;;325.40;128.20;;;;;;;10.17;100.00;101219.81;283425;34;6689;-73
2022/11/13 00:22:08;;;;;;;327.15;130.02;;;;;;;10.18;100.00;101226.78;284363;34;6685;-73
2022/11/13 00:22:19;;;;;;;326.17;127.60;;;;;;;10.19;100.00;101225.03;280007;35;1342;-74
2022/11/13 00:22:29;;;;;;;324.30;125.77;;;;;;;10.18;100.00;101224.16;280577;34;8043;-74
2022/11/13 00:22:40;;;;;;;323.05;125.53;;;;;;;10.20;100.00;101226.78;279798;35;6163;-75
2022/11/13 00:22:50;;;;;;;322.37;125.00;;;;;;;10.19;100.00;101225.94;278284;35;1205;-75
2022/11/13 00:23:00;;;;;;;322.45;125.70;;;;;;;10.18;100.00;101233.75;276990;35;5513;-74
2022/11/13 00:23:11;;;;;;;323.93;126.50;;;;;;;10.18;100.00;101226.78;273902;35;4525;-74
2022/11/13 00:23:21;;;;;;;323.53;128.73;;;;;;;10.18;100.00;101234.63;272632;36;2142;-74
2022/11/13 00:23:35;;;;;;;323.05;128.32;;;;;;;10.18;100.00;101225.91;269357;36;5449;-74
2022/11/13 00:23:45;;;;;;;322.02;124.47;;;;;;;10.17;100.00;101222.44;270327;36;7159;-74
2022/11/13 00:23:56;;;;;;;321.93;123.30;;;;;;;10.15;100.00;101226.81;268095;36;7930;-74
2022/11/13 00:24:07;;;;;;;319.58;122.55;;;;;;;10.16;100.00;101225.94;265878;37;1417;-74
2022/11/13 00:26:17;;;;;;;310.71;111.88;;;;;;;10.20;100.00;101232.88;2503651;27;20468;-74
2022/11/13 00:26:29;;;;;;;318.70;118.90;;;;;;;10.19;100.00;101228.53;354620;27;875;-74
2022/11/13 00:26:39;;;;;;;318.65;119.57;;;;;;;10.19;100.00;101230.25;353010;28;1368;-74
2022/11/13 00:26:49;;;;;;;319.03;120.53;;;;;;;10.20;100.00;101232.88;348858;28;1859;-74
2022/11/13 00:27:00;;;;;;;320.85;122.32;;;;;;;10.19;100.00;101225.03;347656;28;947;-74
2022/11/13 00:27:10;;;;;;;322.43;122.40;;;;;;;10.19;100.00;101227.66;347055;28;3887;-73
2022/11/13 00:27:21;;;;;;;322.60;123.47;;;;;;;10.19;100.00;101220.69;346827;28;4864;-73
2022/11/13 00:27:31;;;;;;;321.77;123.30;;;;;;;10.18;100.00;101224.16;348607;28;3414;-73
2022/11/13 00:27:42;;;;;;;324.40;124.25;;;;;;;10.18;100.00;101224.16;348778;28;1883;-73
2022/11/13 00:27:52;;;;;;;322.67;122.10;;;;;;;10.18;100.00;101226.78;347679;28;3446;-74
2022/11/13 00:28:02;;;;;;;321.30;121.40;;;;;;;10.18;100.00;101232.00;348872;28;1794;-73
2022/11/13 00:28:13;;;;;;;319.93;119.73;;;;;;;10.17;100.00;101222.44;351646;28;1705;-74
2022/11/13 00:28:23;;;;;;;321.38;121.88;;;;;;;10.18;100.00;101229.41;353096;28;1568;-74
2022/11/13 00:28:34;;;;;;;321.93;121.30;;;;;;;10.17;100.00;101227.66;348928;28;1342;-74
2022/11/13 00:28:45;;;;;;;321.85;121.60;;;;;;;10.17;100.00;101222.44;347411;28;2099;-74
2022/11/13 00:28:57;;;;;;;320.00;118.75;;;;;;;10.18;100.00;101224.16;347520;28;1417;-74
2022/11/13 00:29:07;;;;;;;320.25;120.45;;;;;;;10.18;100.00;101223.31;346188;28;1311;-74
2022/11/13 00:29:18;;;;;;;320.57;121.23;;;;;;;10.18;100.00;101232.00;346354;28;1249;-74
2022/11/13 00:29:28;;;;;;;321.00;120.50;;;;;;;10.18;100.00;101229.41;347718;28;940;-74
2022/11/13 00:29:39;;;;;;;319.73;119.23;;;;;;;10.18;100.00;101232.00;344794;28;1346;-74
2022/11/13 00:29:49;;;;;;;318.38;118.38;;;;;;;10.18;100.00;101229.41;349018;28;1368;-74
2022/11/13 00:29:59;;;;;;;317.13;118.80;;;;;;;10.19;100.00;101230.25;347587;28;1288;-74
2022/11/13 00:30:10;;;;;;;318.80;121.28;;;;;;;10.20;100.00;101232.03;345503;28;1885;-74
2022/11/13 00:30:20;;;;;;;321.27;124.50;;;;;;;10.19;100.00;101230.25;341978;28;1097;-74
2022/11/13 00:30:31;;;;;;;322.90;126.93;;;;;;;10.19;100.00;101225.94;342286;28;1034;-74
2022/11/13 00:30:41;;;;;;;323.27;128.57;;;;;;;10.19;100.00;101220.69;347052;28;1543;-74
2022/11/13 00:30:57;;;;;;;323.00;127.13;;;;;;;10.19;100.00;101220.69;348805;28;943;-73
2022/11/13 00:31:08;;;;;;;321.42;121.70;;;;;;;10.19;100.00;101227.66;344961;28;954;-73
2022/11/13 00:31:18;;;;;;;320.02;120.47;;;;;;;10.18;100.00;101224.16;343456;28;1439;-74
2022/11/13 00:31:29;;;;;;;319.93;121.80;;;;;;;10.19;100.00;101231.16;343921;28;929;-74
2022/11/13 00:31:39;;;;;;;320.33;123.30;;;;;;;10.19;100.00;101233.78;346075;28;1208;-74
2022/11/13 00:31:50;;;;;;;321.65;123.18;;;;;;;10.19;100.00;101225.03;346171;28;845;-74
2022/11/13 00:32:00;;;;;;;323.57;123.87;;;;;;;10.18;100.00;101232.00;345032;28;1003;-74
2022/11/13 00:32:10;;;;;;;323.55;122.15;;;;;;;10.18;100.00;101229.41;347762;28;1843;-74
2022/11/13 00:32:21;;;;;;;323.43;121.53;;;;;;;10.19;100.00;101225.94;346642;28;1953;-74
2022/11/13 00:32:31;;;;;;;321.88;122.63;;;;;;;10.19;100.00;101231.16;343509;28;1244;-74
2022/11/13 00:32:42;;;;;;;323.63;125.80;;;;;;;10.19;100.00;101231.16;344779;28;1235;-74
2022/11/13 00:32:52;;;;;;;323.95;127.03;;;;;;;10.19;100.00;101225.94;345280;28;1148;-74
2022/11/13 00:33:03;;;;;;;323.40;125.10;;;;;;;10.19;100.00;101231.16;343474;28;1332;-74
2022/11/13 00:33:13;;;;;;;321.48;123.95;;;;;;;10.19;100.00;101231.16;342150;28;1340;-75
2022/11/13 00:33:23;;;;;;;319.20;121.83;;;;;;;10.18;100.00;101226.78;344761;28;1253;-75
2022/11/13 00:33:34;;;;;;;318.20;122.37;;;;;;;10.18;100.00;101229.41;342155;28;1372;-74
2022/11/13 00:33:44;;;;;;;317.98;121.28;;;;;;;10.18;100.00;101229.41;341985;28;1896;-73
2022/11/13 00:33:54;;;;;;;319.07;121.37;;;;;;;10.18;100.00;101226.78;340874;28;1636;-73
2022/11/13 00:34:05;;;;;;;319.92;122.00;;;;;;;10.18;100.00;101233.75;340780;28;1894;-73
2022/11/13 00:34:15;;;;;;;320.13;121.67;;;;;;;10.17;100.00;101229.41;341071;29;1225;-73
2022/11/13 00:34:26;;;;;;;321.38;123.88;;;;;;;10.16;100.00;101225.06;345030;28;1484;-74
2022/11/13 00:34:37;;;;;;;323.27;124.50;;;;;;;10.17;100.00;101225.06;345102;28;1342;-74
2022/11/13 00:34:47;;;;;;;324.30;125.23;;;;;;;10.16;100.00;101232.91;339633;28;1525;-74
2022/11/13 00:34:57;;;;;;;324.70;125.78;;;;;;;10.16;100.00;101231.16;337240;29;1551;-74
2022/11/13 00:35:08;;;;;;;323.53;126.60;;;;;;;10.15;100.00;101223.34;336427;29;1919;-74
2022/11/13 00:35:18;;;;;;;323.70;127.63;;;;;;;10.14;100.00;101227.69;337007;29;1008;-74
2022/11/13 00:35:30;;;;;;;321.63;123.37;;;;;;;10.13;100.00;101236.44;340107;28;1310;-74
2022/11/13 00:35:40;;;;;;;321.65;123.00;;;;;;;10.12;100.00;101232.09;340806;29;1035;-74
2022/11/13 00:35:51;;;;;;;322.80;122.77;;;;;;;10.12;100.00;101223.38;340433;29;1451;-74
2022/11/13 00:36:06;;;;;;;322.48;122.82;;;;;;;10.13;100.00;101230.34;336945;29;1371;-74
2022/11/13 00:36:24;;;;;;;319.15;119.97;;;;;;;10.13;100.00;101230.34;333108;29;1389;-74
2022/11/13 00:36:34;;;;;;;320.90;123.72;;;;;;;10.13;100.00;101225.97;328611;29;3498;-74
2022/11/13 00:36:44;;;;;;;322.83;124.37;;;;;;;10.15;100.00;101220.72;329299;30;6002;-74
2022/11/13 00:36:55;;;;;;;326.17;125.13;;;;;;;10.14;100.00;101230.31;328275;30;1964;-75
2022/11/13 00:37:05;;;;;;;328.07;126.63;;;;;;;10.15;100.00;101228.56;329043;29;6677;-74
2022/11/13 00:37:16;;;;;;;325.03;124.67;;;;;;;10.14;100.00;101222.47;331945;29;1217;-74
2022/11/13 00:37:26;;;;;;;322.25;122.32;;;;;;;10.14;100.00;101226.84;330885;29;1869;-74
2022/11/13 00:37:37;;;;;;;320.97;122.03;;;;;;;10.14;100.00;101227.69;327937;30;1242;-73
2022/11/13 00:37:47;;;;;;;319.90;122.13;;;;;;;10.14;100.00;101227.69;329322;30;1267;-74
2022/11/13 00:37:57;;;;;;;320.23;121.80;;;;;;;10.13;100.00;101225.97;330234;29;1272;-74
2022/11/13 00:38:08;;;;;;;321.02;122.50;;;;;;;10.12;100.00;101229.47;328811;29;1844;-74
2022/11/13 00:38:18;;;;;;;322.17;125.10;;;;;;;10.12;100.00;101229.47;326806;30;864;-73
2022/11/13 00:38:28;;;;;;;322.73;126.75;;;;;;;10.11;100.00;101221.66;331053;29;2122;-73
2022/11/13 00:38:39;;;;;;;323.57;127.33;;;;;;;10.13;100.00;101225.09;328230;29;2104;-73
2022/11/13 00:38:50;;;;;;;324.47;127.87;;;;;;;10.12;100.00;101229.47;326396;30;2302;-73
2022/11/13 00:39:00;;;;;;;324.17;127.72;;;;;;;10.13;100.00;101225.97;325686;30;888;-73
2022/11/13 00:39:10;;;;;;;322.15;126.55;;;;;;;10.13;100.00;101227.72;323574;30;2683;-73
2022/11/13 00:39:21;;;;;;;321.10;124.40;;;;;;;10.13;100.00;101225.09;323064;29;2569;-73
2022/11/13 00:39:31;;;;;;;323.83;125.55;;;;;;;10.13;100.00;101225.97;328319;30;1336;-74
2022/11/13 00:39:41;;;;;;;325.33;126.03;;;;;;;10.14;100.00;101226.84;323078;30;1748;-74
2022/11/13 00:39:52;;;;;;;325.90;127.87;;;;;;;10.14;100.00;101226.84;320695;30;1539;-74
2022/11/13 00:40:03;;;;;;;322.65;126.40;;;;;;;10.14;100.00;101230.31;319807;30;1133;-73
2022/11/13 00:40:14;;;;;;;321.92;126.05;;;;;;;10.14;100.00;101227.69;321697;30;1975;-74
2022/11/13 00:40:24;;;;;;;323.15;127.20;;;;;;;10.15;100.00;101224.19;321148;30;2635;-74
2022/11/13 00:40:34;;;;;;;323.03;126.97;;;;;;;10.13;100.00;101223.34;316778;30;2974;-74
2022/11/13 00:40:45;;;;;;;323.30;128.57;;;;;;;10.16;100.00;101225.06;314094;31;1532;-74
2022/11/13 00:40:55;;;;;;;323.80;128.93;;;;;;;10.14;100.00;101227.69;314749;31;3052;-75
2022/11/13 00:41:06;;;;;;;322.52;127.25;;;;;;;10.14;100.00;101222.47;315421;31;3043;-75
2022/11/13 00:41:16;;;;;;;324.10;128.43;;;;;;;10.14;100.00;101222.47;312888;31;1181;-75
2022/11/13 00:41:27;;;;;;;324.27;127.53;;;;;;;10.14;100.00;101222.47;309363;31;3496;-75
2022/11/13 00:41:37;;;;;;;324.00;127.00;;;;;;;10.15;100.00;101223.34;308432;31;3235;-75
2022/11/13 00:41:47;;;;;;;321.13;122.75;;;;;;;10.14;100.00;101222.47;310893;31;959;-75
2022/11/13 00:41:58;;;;;;;321.40;123.40;;;;;;;10.15;100.00;101223.34;309641;31;2251;-75
2022/11/13 00:42:08;;;;;;;322.23;125.70;;;;;;;10.16;100.00;101228.56;309274;31;2225;-75
2022/11/13 00:42:19;;;;;;;322.75;126.68;;;;;;;10.15;100.00;101218.97;309699;31;1450;-75
2022/11/13 00:42:29;;;;;;;323.87;128.37;;;;;;;10.14;100.00;101217.25;306400;32;1642;-75
2022/11/13 00:42:39;;;;;;;325.40;127.97;;;;;;;10.14;100.00;101222.47;304996;31;4764;-75
2022/11/13 00:42:50;;;;;;;323.30;125.40;;;;;;;10.15;100.00;101218.97;303372;32;4360;-75
2022/11/13 00:43:00;;;;;;;321.42;122.38;;;;;;;10.15;100.00;101223.34;306550;32;1006;-75
2022/11/13 00:43:11;;;;;;;322.50;124.67;;;;;;;10.15;100.00;101224.19;302212;32;4906;-73
2022/11/13 00:43:21;;;;;;;323.60;129.00;;;;;;;10.15;100.00;101218.97;300798;32;5072;-74
2022/11/13 00:43:31;;;;;;;325.87;131.93;;;;;;;10.16;100.00;101220.69;301225;32;1304;-74
2022/11/13 00:43:42;;;;;;;326.77;131.40;;;;;;;10.17;100.00;101226.81;301466;32;4586;-74
2022/11/13 00:43:52;;;;;;;325.95;127.22;;;;;;;10.17;100.00;101221.56;301228;32;4068;-75
2022/11/13 00:44:03;;;;;;;326.53;127.40;;;;;;;10.17;100.00;101222.44;301443;32;1346;-75
2022/11/13 00:44:13;;;;;;;325.25;127.18;;;;;;;10.17;100.00;101225.06;303404;32;3015;-74
2022/11/13 00:44:24;;;;;;;325.00;128.03;;;;;;;10.17;100.00;101229.41;299003;32;3163;-74
2022/11/13 00:44:34;;;;;;;320.20;121.90;;;;;;;10.16;100.00;101219.84;296145;33;1323;-74
2022/11/13 00:44:44;;;;;;;319.90;121.93;;;;;;;10.16;100.00;101220.69;298078;33;1272;-74
2022/11/13 00:44:55;;;;;;;322.75;124.50;;;;;;;10.15;100.00;101224.19;293758;33;6627;-74
2022/11/13 00:45:07;;;;;;;327.83;128.97;;;;;;;10.15;100.00;101226.81;288535;33;6145;-75
2022/11/13 00:45:18;;;;;;;326.83;127.38;;;;;;;10.16;100.00;101230.31;292104;33;1313;-75
2022/11/13 00:45:28;;;;;;;324.60;124.03;;;;;;;10.16;100.00;101219.84;289954;33;7445;-75
2022/11/13 00:45:39;;;;;;;322.95;124.15;;;;;;;10.15;100.00;101224.19;285412;34;6523;-75
2022/11/13 00:45:49;;;;;;;323.30;124.97;;;;;;;10.15;100.00;101223.34;288295;34;3565;-74
2022/11/13 00:45:59;;;;;;;323.98;126.20;;;;;;;10.16;100.00;101225.94;283585;34;1951;-75
2022/11/13 00:46:10;;;;;;;323.87;126.30;;;;;;;10.15;100.00;101224.19;286029;34;5644;-73
2022/11/13 00:46:20;;;;;;;325.25;128.32;;;;;;;10.15;100.00;101223.34;283492;34;4009;-74
2022/11/13 00:46:31;;;;;;;327.67;130.10;;;;;;;10.13;100.00;101228.59;280978;35;932;-74
2022/11/13 00:46:41;;;;;;;327.13;129.00;;;;;;;10.13;100.00;101225.97;278884;35;3900;-74
2022/11/13 00:46:51;;;;;;;326.27;126.47;;;;;;;10.13;100.00;101223.34;277886;34;9192;-74
2022/11/13 00:47:02;;;;;;;324.37;126.27;;;;;;;10.13;100.00;101220.75;279207;35;1255;-74
2022/11/13 00:47:12;;;;;;;325.27;127.70;;;;;;;10.13;100.00;101220.75;275202;35;9037;-74
2022/11/13 00:47:23;;;;;;;325.53;129.77;;;;;;;10.13;100.00;101225.97;272560;35;8951;-73
2022/11/13 00:47:33;;;;;;;325.88;128.20;;;;;;;10.15;100.00;101221.59;273038;36;1332;-74
2022/11/13 00:47:44;;;;;;;326.85;129.27;;;;;;;10.15;100.00;101224.19;271157;35;10615;-74
2022/11/13 00:47:54;;;;;;;326.97;128.40;;;;;;;10.15;100.00;101224.19;270097;36;10374;-74
2022/11/13 00:48:05;;;;;;;325.90;129.00;;;;;;;10.14;100.00;101227.69;270599;35;11809;-74
2022/11/13 00:48:15;;;;;;;324.92;128.48;;;;;;;10.14;100.00;101227.69;272337;36;940;-74
2022/11/13 00:50:06;;;;;;;313.54;115.05;;;;;;;10.16;100.00;101225.06;2498476;27;20482;-76
2022/11/13 00:50:17;;;;;;;317.75;120.63;;;;;;;10.15;100.00;101224.19;353114;28;965;-75
2022/11/13 00:50:27;;;;;;;318.53;120.70;;;;;;;10.15;100.00;101224.19;350366;28;1329;-75
2022/11/13 00:50:38;;;;;;;319.40;120.60;;;;;;;10.16;100.00;101228.56;348049;28;1491;-74
2022/11/13 00:50:48;;;;;;;321.63;122.50;;;;;;;10.15;100.00;101229.44;346215;28;1221;-74
2022/11/13 00:50:59;;;;;;;321.70;123.85;;;;;;;10.15;100.00;101221.59;347188;28;878;-73
2022/11/13 00:51:09;;;;;;;322.43;126.27;;;;;;;10.16;100.00;101220.69;347822;28;1909;-74
2022/11/13 00:51:19;;;;;;;323.67;124.87;;;;;;;10.16;100.00;101231.16;346317;28;940;-74
2022/11/13 00:51:30;;;;;;;323.98;123.07;;;;;;;10.17;100.00;101229.41;347627;28;905;-74
2022/11/13 00:51:40;;;;;;;322.50;121.32;;;;;;;10.16;100.00;101231.16;346207;28;1319;-73
2022/11/13 00:51:51;;;;;;;319.53;121.33;;;;;;;10.17;100.00;101230.28;349082;28;1182;-73
2022/11/13 00:52:02;;;;;;;321.20;121.67;;;;;;;10.16;100.00;101230.31;348078;28;1570;-74
2022/11/13 00:52:12;;;;;;;321.73;122.13;;;;;;;10.16;100.00;101230.31;347357;28;1548;-74
2022/11/13 00:52:23;;;;;;;323.63;124.43;;;;;;;10.16;100.00;101230.31;348942;28;1329;-74
2022/11/13 00:52:33;;;;;;;322.27;125.60;;;;;;;10.16;100.00;101225.94;347485;28;1207;-74
2022/11/13 00:52:43;;;;;;;323.53;127.27;;;;;;;10.16;100.00;101228.56;346629;28;1748;-74
2022/11/13 00:52:54;;;;;;;324.53;128.30;;;;;;;10.16;100.00;101222.44;349022;28;1322;-74
2022/11/13 00:53:04;;;;;;;322.98;126.72;;;;;;;10.16;100.00;101225.94;347550;28;1357;-74
2022/11/13 00:53:15;;;;;;;320.97;123.10;;;;;;;10.17;100.00;101229.41;346169;28;1291;-73
2022/11/13 00:53:25;;;;;;;321.50;122.38;;;;;;;10.17;100.00;101232.91;346099;28;912;-75
2022/11/13 00:53:35;;;;;;;322.03;122.93;;;;;;;10.17;100.00;101232.03;346150;28;1122;-74
2022/11/13 00:53:46;;;;;;;321.20;122.82;;;;;;;10.18;100.00;101223.31;347285;28;1841;-73
2022/11/13 00:53:56;;;;;;;319.90;122.13;;;;;;;10.17;100.00;101232.03;348145;28;1224;-73
2022/11/13 00:54:07;;;;;;;320.95;122.63;;;;;;;10.17;100.00;101232.91;349976;28;904;-73
2022/11/13 00:54:17;;;;;;;321.03;123.03;;;;;;;10.16;100.00;101233.78;349993;28;904;-73